createdAt,value
2018-07-21T00:00:31.445Z,9.67
2018-07-21T00:02:59.426Z,9.50
2018-07-21T00:05:27.723Z,9.47
2018-07-21T00:07:55.983Z,9.50
2018-07-21T00:10:24.260Z,10.10
2018-07-21T00:12:52.501Z,9.00
2018-07-21T00:15:20.788Z,8.87
2018-07-21T00:17:48.929Z,9.37
2018-07-21T00:20:17.332Z,9.40
2018-07-21T00:22:45.530Z,8.30
2018-07-21T00:25:13.739Z,8.17
2018-07-21T00:27:41.976Z,7.57
2018-07-21T00:30:10.274Z,7.07
2018-07-21T00:32:38.502Z,7.40
2018-07-21T00:35:07.119Z,7.17
2018-07-21T00:37:36.911Z,7.57
2018-07-21T00:40:05.486Z,7.97
2018-07-21T00:42:34.186Z,6.97
2018-07-21T00:45:02.453Z,7.73
2018-07-21T00:47:30.694Z,7.50
2018-07-21T00:49:58.965Z,7.50
2018-07-21T00:52:27.200Z,7.53
2018-07-21T00:54:55.473Z,7.90
2018-07-21T00:57:23.728Z,8.30
2018-07-21T00:59:51.999Z,7.93
2018-07-21T01:02:20.258Z,7.77
2018-07-21T01:04:48.500Z,6.70
2018-07-21T01:07:16.818Z,7.10
2018-07-21T01:09:45.111Z,6.83
2018-07-21T01:12:13.367Z,6.97
2018-07-21T01:14:41.648Z,7.20
2018-07-21T01:17:09.909Z,7.70
2018-07-21T01:19:38.199Z,6.80
2018-07-21T01:22:06.621Z,7.53
2018-07-21T01:24:34.852Z,7.37
2018-07-21T01:27:03.144Z,7.43
2018-07-21T01:29:31.396Z,7.33
2018-07-21T01:31:59.724Z,7.67
2018-07-21T01:34:27.977Z,7.77
2018-07-21T01:36:56.208Z,7.40
2018-07-21T01:39:24.790Z,7.10
2018-07-21T01:41:53.058Z,7.80
2018-07-21T01:44:21.924Z,8.03
2018-07-21T01:46:50.197Z,7.80
2018-07-21T01:49:18.434Z,7.93
2018-07-21T01:51:46.661Z,7.83
2018-07-21T01:54:14.888Z,7.90
2018-07-21T01:56:43.694Z,7.83
2018-07-21T01:59:11.919Z,6.90
2018-07-21T02:01:40.152Z,7.53
2018-07-21T02:04:08.352Z,7.43
2018-07-21T02:06:36.607Z,7.37
2018-07-21T02:09:07.322Z,7.53
2018-07-21T02:11:35.572Z,7.43
2018-07-21T02:14:03.819Z,7.00
2018-07-21T02:16:32.073Z,7.40
2018-07-21T02:19:00.307Z,7.30
2018-07-21T02:21:28.552Z,7.67
2018-07-21T02:23:56.771Z,7.37
2018-07-21T02:26:24.996Z,7.60
2018-07-21T02:28:53.208Z,7.70
2018-07-21T02:31:21.471Z,7.67
2018-07-21T02:33:49.731Z,6.83
2018-07-21T02:36:18.013Z,7.37
2018-07-21T02:38:46.236Z,7.67
2018-07-21T02:41:14.473Z,7.20
2018-07-21T02:43:43.059Z,7.67
2018-07-21T02:46:11.636Z,7.40
2018-07-21T02:48:39.906Z,6.73
2018-07-21T02:51:08.138Z,7.03
2018-07-21T02:53:36.350Z,7.33
2018-07-21T02:56:04.595Z,7.00
2018-07-21T02:58:32.810Z,7.07
2018-07-21T03:01:01.052Z,7.23
2018-07-21T03:03:29.291Z,6.60
2018-07-21T03:05:57.498Z,7.03
2018-07-21T03:08:25.773Z,7.33
2018-07-21T03:10:53.990Z,7.40
2018-07-21T03:13:22.271Z,7.37
2018-07-21T03:15:50.484Z,6.90
2018-07-21T03:18:18.799Z,7.43
2018-07-21T03:20:47.096Z,6.90
2018-07-21T03:23:15.391Z,6.90
2018-07-21T03:25:43.586Z,7.40
2018-07-21T03:28:11.812Z,7.27
2018-07-21T03:30:40.083Z,6.90
2018-07-21T03:33:08.322Z,7.27
2018-07-21T03:35:36.530Z,6.93
2018-07-21T03:38:04.988Z,7.33
2018-07-21T03:40:33.359Z,6.93
2018-07-21T03:43:01.344Z,7.23
2018-07-21T03:45:29.575Z,7.63
2018-07-21T03:47:57.804Z,7.03
2018-07-21T03:50:26.016Z,7.03
2018-07-21T03:52:54.255Z,7.07
2018-07-21T03:55:22.490Z,7.43
2018-07-21T03:57:50.732Z,7.10
2018-07-21T04:00:18.968Z,7.47
2018-07-21T04:02:47.208Z,7.30
2018-07-21T04:05:15.220Z,7.60
2018-07-21T04:07:43.488Z,7.50
2018-07-21T04:10:11.764Z,7.77
2018-07-21T04:12:40.065Z,7.67
2018-07-21T04:15:08.301Z,7.83
2018-07-21T04:17:37.344Z,7.50
2018-07-21T04:20:05.635Z,7.80
2018-07-21T04:22:33.880Z,7.10
2018-07-21T04:25:02.116Z,7.90
2018-07-21T04:27:30.371Z,7.60
2018-07-21T04:29:58.386Z,7.73
2018-07-21T04:32:26.627Z,7.27
2018-07-21T04:34:54.874Z,7.83
2018-07-21T04:37:23.107Z,7.53
2018-07-21T04:39:51.336Z,6.90
2018-07-21T04:42:19.370Z,7.10
2018-07-21T04:44:47.600Z,7.60
2018-07-21T04:47:15.897Z,7.33
2018-07-21T04:49:44.298Z,7.00
2018-07-21T04:52:12.597Z,6.63
2018-07-21T04:54:40.841Z,6.77
2018-07-21T04:57:09.078Z,6.80
2018-07-21T04:59:37.362Z,6.93
2018-07-21T05:02:05.796Z,7.00
2018-07-21T05:04:33.884Z,6.60
2018-07-21T05:07:02.115Z,6.50
2018-07-21T05:09:30.331Z,6.77
2018-07-21T05:11:58.337Z,6.70
2018-07-21T05:14:26.631Z,6.87
2018-07-21T05:16:54.888Z,7.10
2018-07-21T05:19:23.239Z,7.07
2018-07-21T05:21:51.463Z,6.40
2018-07-21T05:24:19.732Z,7.47
2018-07-21T05:26:48.123Z,6.27
2018-07-21T05:29:16.356Z,6.20
2018-07-21T05:31:44.371Z,6.00
2018-07-21T05:34:12.645Z,5.87
2018-07-21T05:36:40.904Z,6.40
2018-07-21T05:39:10.170Z,5.77
2018-07-21T05:41:38.841Z,6.10
2018-07-21T05:44:07.348Z,6.17
2018-07-21T05:46:36.163Z,5.83
2018-07-21T05:49:04.481Z,5.40
2018-07-21T05:51:32.737Z,6.00
2018-07-21T05:54:01.025Z,5.20
2018-07-21T05:56:29.295Z,5.10
2018-07-21T05:58:57.906Z,5.60
2018-07-21T06:01:26.152Z,4.97
2018-07-21T06:03:55.714Z,5.20
2018-07-21T06:06:24.354Z,4.60
2018-07-21T06:08:52.636Z,4.07
2018-07-21T06:11:20.891Z,4.13
2018-07-21T06:13:49.128Z,4.13
2018-07-21T06:16:17.404Z,3.60
2018-07-21T06:18:45.704Z,3.90
2018-07-21T06:21:13.959Z,3.40
2018-07-21T06:23:42.253Z,3.07
2018-07-21T06:26:10.624Z,3.37
2018-07-21T06:28:38.867Z,3.40
2018-07-21T06:31:07.304Z,2.90
2018-07-21T06:33:35.573Z,3.00
2018-07-21T06:36:03.844Z,2.60
2018-07-21T06:38:31.848Z,3.27
2018-07-21T06:41:00.429Z,2.50
2018-07-21T06:43:28.674Z,2.70
2018-07-21T06:45:56.678Z,2.40
2018-07-21T06:48:24.951Z,2.50
2018-07-21T06:50:53.248Z,2.80
2018-07-21T06:53:21.465Z,2.20
2018-07-21T06:55:49.713Z,2.10
2018-07-21T06:58:17.953Z,2.40
2018-07-21T07:00:46.310Z,2.10
2018-07-21T07:03:14.588Z,2.00
2018-07-21T07:05:42.833Z,2.30
2018-07-21T07:08:10.857Z,1.90
2018-07-21T07:10:39.086Z,2.00
2018-07-21T07:13:07.437Z,2.17
2018-07-21T07:15:35.691Z,1.83
2018-07-21T07:18:04.092Z,2.30
2018-07-21T07:20:32.331Z,1.93
2018-07-21T07:23:00.561Z,1.80
2018-07-21T07:25:28.636Z,1.93
2018-07-21T07:27:56.831Z,1.97
2018-07-21T07:30:25.093Z,1.73
2018-07-21T07:32:53.296Z,1.90
2018-07-21T07:35:21.748Z,1.93
2018-07-21T07:37:50.113Z,1.77
2018-07-21T07:40:18.366Z,1.70
2018-07-21T07:42:46.600Z,1.60
2018-07-21T07:45:14.827Z,2.10
2018-07-21T07:47:43.097Z,1.67
2018-07-21T07:50:11.171Z,1.30
2018-07-21T07:52:39.369Z,1.62
2018-07-21T07:55:07.744Z,1.77
2018-07-21T07:57:36.021Z,1.77
2018-07-21T08:00:05.044Z,1.30
2018-07-21T08:02:33.937Z,1.35
2018-07-21T08:05:02.193Z,1.40
2018-07-21T08:07:30.411Z,1.60
2018-07-21T08:09:58.644Z,1.37
2018-07-21T08:12:26.873Z,1.40
2018-07-21T08:14:55.109Z,1.70
2018-07-21T08:17:23.364Z,1.55
2018-07-21T08:19:51.594Z,1.10
2018-07-21T08:22:19.809Z,1.52
2018-07-21T08:24:48.044Z,1.60
2018-07-21T08:27:16.269Z,1.62
2018-07-21T08:29:44.512Z,1.55
2018-07-21T08:32:12.737Z,1.60
2018-07-21T08:34:40.991Z,2.10
2018-07-21T08:37:08.997Z,1.42
2018-07-21T08:39:37.231Z,1.60
2018-07-21T08:42:05.488Z,1.70
2018-07-21T08:44:33.768Z,1.50
2018-07-21T08:47:02.039Z,1.70
2018-07-21T08:49:30.252Z,1.92
2018-07-21T08:51:58.663Z,1.72
2018-07-21T08:54:27.037Z,1.90
2018-07-21T08:56:55.308Z,1.70
2018-07-21T08:59:23.543Z,2.00
2018-07-21T09:01:51.808Z,1.90
2018-07-21T09:04:20.090Z,1.90
2018-07-21T09:06:48.362Z,2.10
2018-07-21T09:09:16.584Z,2.30
2018-07-21T09:11:44.832Z,1.87
2018-07-21T09:14:13.060Z,1.70
2018-07-21T09:16:41.315Z,2.30
2018-07-21T09:19:09.305Z,1.92
2018-07-21T09:21:37.645Z,2.17
2018-07-21T09:24:05.946Z,2.40
2018-07-21T09:26:34.180Z,2.20
2018-07-21T09:29:02.410Z,1.95
2018-07-21T09:31:30.680Z,2.08
2018-07-21T09:33:58.916Z,1.82
2018-07-21T09:36:27.190Z,1.95
2018-07-21T09:38:55.434Z,2.42
2018-07-21T09:41:23.680Z,2.50
2018-07-21T09:43:52.096Z,2.40
2018-07-21T09:46:20.380Z,2.47
2018-07-21T09:48:48.636Z,2.35
2018-07-21T09:51:16.871Z,2.20
2018-07-21T09:53:45.096Z,2.30
2018-07-21T09:56:13.336Z,2.60
2018-07-21T09:58:41.564Z,2.50
2018-07-21T10:01:09.791Z,2.33
2018-07-21T10:03:38.016Z,2.60
2018-07-21T10:06:06.260Z,2.27
2018-07-21T10:08:34.480Z,2.58
2018-07-21T10:11:02.496Z,2.42
2018-07-21T10:13:30.736Z,3.02
2018-07-21T10:15:58.960Z,2.85
2018-07-21T10:18:27.466Z,2.92
2018-07-21T10:20:55.773Z,2.70
2018-07-21T10:23:23.987Z,2.85
2018-07-21T10:25:57.691Z,2.80
2018-07-21T10:28:31.278Z,3.10
2018-07-21T10:30:59.477Z,3.08
2018-07-21T10:33:27.771Z,2.60
2018-07-21T10:35:55.962Z,2.80
2018-07-21T10:38:24.205Z,3.00
2018-07-21T10:40:52.447Z,3.00
2018-07-21T10:43:20.684Z,2.77
2018-07-21T10:45:48.904Z,3.12
2018-07-21T10:48:17.128Z,3.00
2018-07-21T10:50:45.393Z,3.02
2018-07-21T10:53:13.620Z,3.15
2018-07-21T10:55:41.868Z,3.10
2018-07-21T10:58:10.115Z,3.35
2018-07-21T11:00:38.340Z,2.90
2018-07-21T11:03:06.583Z,2.90
2018-07-21T11:05:34.799Z,3.35
2018-07-21T11:08:03.044Z,3.25
2018-07-21T11:10:31.454Z,3.05
2018-07-21T11:12:59.685Z,3.08
2018-07-21T11:15:27.967Z,2.80
2018-07-21T11:17:56.208Z,3.20
2018-07-21T11:20:24.430Z,3.67
2018-07-21T11:22:52.658Z,3.30
2018-07-21T11:25:20.907Z,3.02
2018-07-21T11:27:49.139Z,3.05
2018-07-21T11:30:17.452Z,3.83
2018-07-21T11:32:45.814Z,3.60
2018-07-21T11:35:14.674Z,3.45
2018-07-21T11:37:42.885Z,3.52
2018-07-21T11:40:11.109Z,3.20
2018-07-21T11:42:39.620Z,3.10
2018-07-21T11:45:08.053Z,3.52
2018-07-21T11:47:36.286Z,3.50
2018-07-21T11:50:04.600Z,3.45
2018-07-21T11:52:32.869Z,3.22
2018-07-21T11:55:01.185Z,3.52
2018-07-21T11:57:29.521Z,3.30
2018-07-21T11:59:57.785Z,3.10
2018-07-21T12:02:26.156Z,3.33
2018-07-21T12:04:54.536Z,3.77
2018-07-21T12:07:22.805Z,3.67
2018-07-21T12:09:51.044Z,3.40
2018-07-21T12:12:19.284Z,3.55
2018-07-21T12:14:47.560Z,3.98
2018-07-21T12:17:15.831Z,3.52
2018-07-21T12:19:44.058Z,3.80
2018-07-21T12:22:12.285Z,3.30
2018-07-21T12:24:40.518Z,4.00
2018-07-21T12:27:08.727Z,3.50
2018-07-21T12:29:36.981Z,3.35
2018-07-21T12:32:05.183Z,3.83
2018-07-21T12:34:33.457Z,3.83
2018-07-21T12:37:01.676Z,3.60
2018-07-21T12:39:29.899Z,3.90
2018-07-21T12:41:58.152Z,4.00
2018-07-21T12:44:26.375Z,3.70
2018-07-21T12:46:54.628Z,3.58
2018-07-21T12:49:22.635Z,3.62
2018-07-21T12:51:50.860Z,3.90
2018-07-21T12:54:19.110Z,3.90
2018-07-21T12:56:47.356Z,4.15
2018-07-21T12:59:15.592Z,3.98
2018-07-21T13:01:43.804Z,3.72
2018-07-21T13:04:12.043Z,3.70
2018-07-21T13:06:40.293Z,3.95
2018-07-21T13:09:09.901Z,4.33
2018-07-21T13:11:38.315Z,4.25
2018-07-21T13:14:06.589Z,4.22
2018-07-21T13:16:35.061Z,3.83
2018-07-21T13:19:03.340Z,3.83
2018-07-21T13:21:31.607Z,4.50
2018-07-21T13:23:59.860Z,4.40
2018-07-21T13:26:28.279Z,4.50
2018-07-21T13:28:56.528Z,4.65
2018-07-21T13:31:24.773Z,4.37
2018-07-21T13:33:53.063Z,3.92
2018-07-21T13:36:21.298Z,4.40
2018-07-21T13:38:49.545Z,4.37
2018-07-21T13:41:17.764Z,3.85
2018-07-21T13:43:45.997Z,4.45
2018-07-21T13:46:14.218Z,4.15
2018-07-21T13:48:42.472Z,4.12
2018-07-21T13:51:10.687Z,4.42
2018-07-21T13:53:38.920Z,4.70
2018-07-21T13:56:07.188Z,4.70
2018-07-21T13:58:35.427Z,4.42
2018-07-21T14:01:03.635Z,4.85
2018-07-21T14:03:31.887Z,4.87
2018-07-21T14:05:59.855Z,4.70
2018-07-21T14:08:28.080Z,5.20
2018-07-21T14:10:57.192Z,4.50
2018-07-21T14:13:25.541Z,4.53
2018-07-21T14:15:53.847Z,4.95
2018-07-21T14:18:22.064Z,4.72
2018-07-21T14:20:50.341Z,4.83
2018-07-21T14:23:18.569Z,4.50
2018-07-21T14:25:46.816Z,4.55
2018-07-21T14:28:15.332Z,4.83
2018-07-21T14:30:43.575Z,5.35
2018-07-21T14:33:11.787Z,4.78
2018-07-21T14:35:40.040Z,4.78
2018-07-21T14:38:08.620Z,4.72
2018-07-21T14:40:36.970Z,4.65
2018-07-21T14:43:05.187Z,5.00
2018-07-21T14:45:33.452Z,4.80
2018-07-21T14:48:01.709Z,4.97
2018-07-21T14:50:29.936Z,5.58
2018-07-21T14:52:58.153Z,5.33
2018-07-21T14:55:26.428Z,5.50
2018-07-21T14:57:54.779Z,4.87
2018-07-21T15:00:23.035Z,4.87
2018-07-21T15:02:51.048Z,5.10
2018-07-21T15:05:19.281Z,5.20
2018-07-21T15:07:47.512Z,5.47
2018-07-21T15:10:15.755Z,5.25
2018-07-21T15:12:43.979Z,4.95
2018-07-21T15:15:12.241Z,5.22
2018-07-21T15:17:40.535Z,4.90
2018-07-21T15:20:09.140Z,5.47
2018-07-21T15:22:37.376Z,5.35
2018-07-21T15:25:06.027Z,4.78
2018-07-21T15:27:34.256Z,5.53
2018-07-21T15:30:02.503Z,5.10
2018-07-21T15:32:30.718Z,5.30
2018-07-21T15:34:58.746Z,5.37
2018-07-21T15:37:26.997Z,5.55
2018-07-21T15:39:55.279Z,5.33
2018-07-21T15:42:23.488Z,5.17
2018-07-21T15:44:51.717Z,5.15
2018-07-21T15:47:19.924Z,5.25
2018-07-21T15:49:48.180Z,5.53
2018-07-21T15:52:16.403Z,5.10
2018-07-21T15:54:44.704Z,4.92
2018-07-21T15:57:12.912Z,6.50
2018-07-21T15:59:41.155Z,5.10
2018-07-21T16:02:09.356Z,5.22
2018-07-21T16:04:37.592Z,5.20
2018-07-21T16:07:05.855Z,5.75
2018-07-21T16:09:33.896Z,4.97
2018-07-21T16:12:02.201Z,5.05
2018-07-21T16:14:30.437Z,5.53
2018-07-21T16:16:58.708Z,5.35
2018-07-21T16:19:26.932Z,5.47
2018-07-21T16:21:55.155Z,5.37
2018-07-21T16:24:23.372Z,5.50
2018-07-21T16:26:51.608Z,4.90
2018-07-21T16:29:19.821Z,5.53
2018-07-21T16:31:48.116Z,5.08
2018-07-21T16:34:16.357Z,5.62
2018-07-21T16:36:44.608Z,5.45
2018-07-21T16:39:12.880Z,5.75
2018-07-21T16:41:41.160Z,5.60
2018-07-21T16:44:09.424Z,5.20
2018-07-21T16:46:37.659Z,5.10
2018-07-21T16:49:05.872Z,5.28
2018-07-21T16:51:34.142Z,5.00
2018-07-21T16:54:02.377Z,5.05
2018-07-21T16:56:30.612Z,5.12
2018-07-21T16:58:58.857Z,5.37
2018-07-21T17:01:27.488Z,5.55
2018-07-21T17:03:56.079Z,5.40
2018-07-21T17:06:24.089Z,5.50
2018-07-21T17:08:52.345Z,5.70
2018-07-21T17:11:20.596Z,5.97
2018-07-21T17:13:48.579Z,5.67
2018-07-21T17:16:16.916Z,5.58
2018-07-21T17:18:45.256Z,5.62
2018-07-21T17:21:13.524Z,5.87
2018-07-21T17:23:41.780Z,5.83
2018-07-21T17:26:10.042Z,5.78
2018-07-21T17:28:38.270Z,5.22
2018-07-21T17:31:07.718Z,5.40
2018-07-21T17:33:35.985Z,6.30
2018-07-21T17:36:04.288Z,5.97
2018-07-21T17:38:32.613Z,5.47
2018-07-21T17:41:00.888Z,6.12
2018-07-21T17:43:29.152Z,5.47
2018-07-21T17:45:57.428Z,5.45
2018-07-21T17:48:25.661Z,5.40
2018-07-21T17:50:53.944Z,5.33
2018-07-21T17:53:22.240Z,5.28
2018-07-21T17:55:50.520Z,4.92
2018-07-21T17:58:18.769Z,5.25
2018-07-21T18:00:47.030Z,5.10
2018-07-21T18:03:15.270Z,5.35
2018-07-21T18:05:43.524Z,5.22
2018-07-21T18:08:11.743Z,6.08
2018-07-21T18:10:39.799Z,5.92
2018-07-21T18:13:08.127Z,5.42
2018-07-21T18:15:36.386Z,5.00
2018-07-21T18:18:04.791Z,5.50
2018-07-21T18:20:33.018Z,5.57
2018-07-21T18:23:01.041Z,5.43
2018-07-21T18:25:29.392Z,5.25
2018-07-21T18:27:57.718Z,5.17
2018-07-21T18:30:26.049Z,5.40
2018-07-21T18:32:54.323Z,5.70
2018-07-21T18:35:22.536Z,5.35
2018-07-21T18:37:50.805Z,5.50
2018-07-21T18:40:19.018Z,5.20
2018-07-21T18:42:47.248Z,5.83
2018-07-21T18:45:15.537Z,5.57
2018-07-21T18:47:43.744Z,5.53
2018-07-21T18:50:11.954Z,5.37
2018-07-21T18:52:40.216Z,5.80
2018-07-21T18:55:08.436Z,5.47
2018-07-21T18:57:36.678Z,5.43
2018-07-21T19:00:05.159Z,5.43
2018-07-21T19:02:33.383Z,5.30
2018-07-21T19:05:01.620Z,5.73
2018-07-21T19:07:29.868Z,5.20
2018-07-21T19:09:58.073Z,5.83
2018-07-21T19:12:31.685Z,5.73
2018-07-21T19:14:59.962Z,5.43
2018-07-21T19:17:28.208Z,5.67
2018-07-21T19:20:01.761Z,5.93
2018-07-21T19:22:29.778Z,5.50
2018-07-21T19:24:58.051Z,5.20
2018-07-21T19:27:30.836Z,5.77
2018-07-21T19:29:59.063Z,4.83
2018-07-21T19:32:32.733Z,6.37
2018-07-21T19:35:01.088Z,5.67
2018-07-21T19:37:35.010Z,6.03
2018-07-21T19:40:03.436Z,5.20
2018-07-21T19:42:31.669Z,5.80
2018-07-21T19:44:59.901Z,6.10
2018-07-21T19:47:28.168Z,5.40
2018-07-21T19:49:56.430Z,5.90
2018-07-21T19:52:24.455Z,5.80
2018-07-21T19:54:52.699Z,5.70
2018-07-21T19:57:20.939Z,5.33
2018-07-21T19:59:49.175Z,5.20
2018-07-21T20:02:17.386Z,4.90
2018-07-21T20:04:45.637Z,5.33
2018-07-21T20:07:13.883Z,5.43
2018-07-21T20:09:42.137Z,5.70
2018-07-21T20:12:10.362Z,6.13
2018-07-21T20:14:38.597Z,5.90
2018-07-21T20:17:06.913Z,6.07
2018-07-21T20:19:35.152Z,6.43
2018-07-21T20:22:03.388Z,6.23
2018-07-21T20:24:31.844Z,5.83
2018-07-21T20:27:00.069Z,6.53
2018-07-21T20:29:28.299Z,6.27
2018-07-21T20:31:56.603Z,6.17
2018-07-21T20:34:24.868Z,6.13
2018-07-21T20:36:53.085Z,6.10
2018-07-21T20:39:21.321Z,6.40
2018-07-21T20:41:49.547Z,6.63
2018-07-21T20:44:17.771Z,6.43
2018-07-21T20:46:46.007Z,6.97
2018-07-21T20:49:14.224Z,6.57
2018-07-21T20:51:42.445Z,7.50
2018-07-21T20:54:10.669Z,7.50
2018-07-21T20:56:38.889Z,7.17
2018-07-21T20:59:07.148Z,7.43
2018-07-21T21:01:35.412Z,7.50
2018-07-21T21:04:03.780Z,7.20
2018-07-21T21:06:32.009Z,7.40
2018-07-21T21:09:00.255Z,7.70
2018-07-21T21:11:28.471Z,7.67
2018-07-21T21:13:56.739Z,7.57
2018-07-21T21:16:25.099Z,8.23
2018-07-21T21:18:53.355Z,7.63
2018-07-21T21:21:21.560Z,7.43
2018-07-21T21:23:49.800Z,7.93
2018-07-21T21:26:18.021Z,7.63
2018-07-21T21:28:46.292Z,7.53
2018-07-21T21:31:14.511Z,7.83
2018-07-21T21:33:42.761Z,7.73
2018-07-21T21:36:10.767Z,7.93
2018-07-21T21:38:39.009Z,8.33
2018-07-21T21:41:07.264Z,8.57
2018-07-21T21:43:35.510Z,7.73
2018-07-21T21:46:03.729Z,8.17
2018-07-21T21:48:32.148Z,8.70
2018-07-21T21:51:00.346Z,7.83
2018-07-21T21:53:28.576Z,7.90
2018-07-21T21:55:56.831Z,7.80
2018-07-21T21:58:25.036Z,7.80
2018-07-21T22:00:59.980Z,8.07
2018-07-21T22:03:29.749Z,9.60
2018-07-21T22:05:58.174Z,9.57
2018-07-21T22:08:26.388Z,9.47
2018-07-21T22:10:55.106Z,8.70
2018-07-21T22:13:23.333Z,8.33
2018-07-21T22:15:51.564Z,9.37
2018-07-21T22:18:19.892Z,9.13
2018-07-21T22:20:48.131Z,9.93
2018-07-21T22:23:16.369Z,10.17
2018-07-21T22:25:44.608Z,10.43
2018-07-21T22:28:12.845Z,10.57
2018-07-21T22:30:41.100Z,11.07
2018-07-21T22:33:09.340Z,10.83
2018-07-21T22:35:37.577Z,9.57
2018-07-21T22:38:05.832Z,9.73
2018-07-21T22:40:34.079Z,9.67
2018-07-21T22:43:02.318Z,9.60
2018-07-21T22:45:30.566Z,10.10
2018-07-21T22:47:58.812Z,10.87
2018-07-21T22:50:27.109Z,11.33
2018-07-21T22:52:55.392Z,11.60
2018-07-21T22:55:23.635Z,11.73
2018-07-21T22:57:51.854Z,11.13
2018-07-21T23:00:20.132Z,10.10
2018-07-21T23:02:48.377Z,9.03
2018-07-21T23:05:16.708Z,8.67
2018-07-21T23:07:44.931Z,8.30
2018-07-21T23:10:13.187Z,8.07
2018-07-21T23:12:41.444Z,7.60
2018-07-21T23:15:10.259Z,7.47
2018-07-21T23:17:38.511Z,7.77
2018-07-21T23:20:07.788Z,7.57
2018-07-21T23:22:36.251Z,7.77
2018-07-21T23:25:04.720Z,7.97
2018-07-21T23:27:33.008Z,7.73
2018-07-21T23:30:01.256Z,7.97
2018-07-21T23:32:29.561Z,7.23
2018-07-21T23:34:57.499Z,7.37
2018-07-21T23:37:25.757Z,7.43
2018-07-21T23:39:54.013Z,7.87
2018-07-21T23:42:23.044Z,7.90
2018-07-21T23:44:51.305Z,8.30
2018-07-21T23:47:19.547Z,9.10
2018-07-21T23:49:47.786Z,8.63
2018-07-21T23:52:16.044Z,8.67
2018-07-21T23:54:44.295Z,7.43
2018-07-21T23:57:12.549Z,7.60
2018-07-21T23:59:40.926Z,8.00
